sensor_id;sensor_type;location;lat;lon;timestamp;pressure;altitude;pressure_sealevel;temperature;humidity
47280;BME280;34064;44.942;0.008;2023-02-01T00:01:21;100278.69;;;10.81;65.04
47280;BME280;34064;44.942;0.008;2023-02-01T00:03:48;100265.47;;;10.79;65.01
47280;BME280;34064;44.942;0.008;2023-02-01T00:06:18;100272.66;;;10.77;64.92
47280;BME280;34064;44.942;0.008;2023-02-01T00:08:45;100272.81;;;10.74;65.06
47280;BME280;34064;44.942;0.008;2023-02-01T00:11:13;100273.00;;;10.71;64.93
47280;BME280;34064;44.942;0.008;2023-02-01T00:13:42;100271.28;;;10.70;65.02
47280;BME280;34064;44.942;0.008;2023-02-01T00:16:21;100281.94;;;10.70;65.03
47280;BME280;34064;44.942;0.008;2023-02-01T00:18:51;100273.16;;;10.68;65.04
47280;BME280;34064;44.942;0.008;2023-02-01T00:21:20;100281.22;;;10.66;64.73
47280;BME280;34064;44.942;0.008;2023-02-01T00:23:48;100270.75;;;10.63;65.10
47280;BME280;34064;44.942;0.008;2023-02-01T00:26:21;100271.78;;;10.60;64.92
47280;BME280;34064;44.942;0.008;2023-02-01T00:28:50;100272.81;;;10.58;64.89
47280;BME280;34064;44.942;0.008;2023-02-01T00:31:21;100270.38;;;10.53;65.05
47280;BME280;34064;44.942;0.008;2023-02-01T00:33:49;100274.94;;;10.51;65.01
47280;BME280;34064;44.942;0.008;2023-02-01T00:36:17;100282.34;;;10.44;65.36
47280;BME280;34064;44.942;0.008;2023-02-01T00:38:45;100279.00;;;10.41;65.34
47280;BME280;34064;44.942;0.008;2023-02-01T00:41:20;100280.97;;;10.37;65.29
47280;BME280;34064;44.942;0.008;2023-02-01T00:43:51;100287.19;;;10.36;65.44
47280;BME280;34064;44.942;0.008;2023-02-01T00:46:20;100281.94;;;10.35;65.44
47280;BME280;34064;44.942;0.008;2023-02-01T00:48:48;100285.63;;;10.32;65.47
47280;BME280;34064;44.942;0.008;2023-02-01T00:51:18;100282.13;;;10.32;65.38
47280;BME280;34064;44.942;0.008;2023-02-01T00:53:44;100285.72;;;10.30;65.42
47280;BME280;34064;44.942;0.008;2023-02-01T00:56:11;100283.84;;;10.33;65.36
47280;BME280;34064;44.942;0.008;2023-02-01T00:58:38;100278.69;;;10.29;65.33
47280;BME280;34064;44.942;0.008;2023-02-01T01:01:11;100279.59;;;10.28;65.23
47280;BME280;34064;44.942;0.008;2023-02-01T01:03:44;100287.91;;;10.22;65.32
47280;BME280;34064;44.942;0.008;2023-02-01T01:06:16;100282.59;;;10.22;65.33
47280;BME280;34064;44.942;0.008;2023-02-01T01:08:43;100287.13;;;10.20;65.23
47280;BME280;34064;44.942;0.008;2023-02-01T01:11:15;100275.56;;;10.21;64.90
47280;BME280;34064;44.942;0.008;2023-02-01T01:13:43;100280.88;;;10.21;65.06
47280;BME280;34064;44.942;0.008;2023-02-01T01:16:11;100289.69;;;10.22;64.74
47280;BME280;34064;44.942;0.008;2023-02-01T01:18:37;100285.25;;;10.22;64.96
47280;BME280;34064;44.942;0.008;2023-02-01T01:21:07;100281.72;;;10.22;64.94
47280;BME280;34064;44.942;0.008;2023-02-01T01:23:35;100285.31;;;10.21;64.78
47280;BME280;34064;44.942;0.008;2023-02-01T01:26:08;100285.53;;;10.16;64.85
47280;BME280;34064;44.942;0.008;2023-02-01T01:28:35;100281.03;;;10.18;64.92
47280;BME280;34064;44.942;0.008;2023-02-01T01:31:02;100294.25;;;10.20;64.88
47280;BME280;34064;44.942;0.008;2023-02-01T01:33:30;100281.03;;;10.18;64.86
47280;BME280;34064;44.942;0.008;2023-02-01T01:35:56;100292.53;;;10.19;64.82
47280;BME280;34064;44.942;0.008;2023-02-01T01:38:23;100288.19;;;10.16;64.94
47280;BME280;34064;44.942;0.008;2023-02-01T01:40:51;100287.34;;;10.15;64.80
47280;BME280;34064;44.942;0.008;2023-02-01T01:43:19;100287.44;;;10.14;64.66
47280;BME280;34064;44.942;0.008;2023-02-01T01:45:49;100287.59;;;10.11;64.54
47280;BME280;34064;44.942;0.008;2023-02-01T01:48:25;100293.97;;;10.07;64.69
47280;BME280;34064;44.942;0.008;2023-02-01T01:51:02;100305.72;;;10.03;64.52
47280;BME280;34064;44.942;0.008;2023-02-01T01:53:38;100301.47;;;9.98;64.68
47280;BME280;34064;44.942;0.008;2023-02-01T01:56:08;100299.94;;;9.94;64.63
47280;BME280;34064;44.942;0.008;2023-02-01T01:58:35;100304.59;;;9.89;64.53
47280;BME280;34064;44.942;0.008;2023-02-01T02:01:02;100302.16;;;9.84;64.56
47280;BME280;34064;44.942;0.008;2023-02-01T02:03:43;100304.13;;;9.81;64.58
47280;BME280;34064;44.942;0.008;2023-02-01T02:06:27;100320.19;;;9.78;64.42
47280;BME280;34064;44.942;0.008;2023-02-01T02:08:57;100316.81;;;9.74;64.52
47280;BME280;34064;44.942;0.008;2023-02-01T02:11:24;100320.50;;;9.72;64.57
47280;BME280;34064;44.942;0.008;2023-02-01T02:13:53;100325.25;;;9.65;64.31
47280;BME280;34064;44.942;0.008;2023-02-01T02:16:52;100336.03;;;9.62;64.39
47280;BME280;34064;44.942;0.008;2023-02-01T02:25:37;100336.25;;;9.57;64.41
47280;BME280;34064;44.942;0.008;2023-02-01T02:28:35;100335.44;;;9.55;64.44
47280;BME280;34064;44.942;0.008;2023-02-01T02:31:33;100326.69;;;9.53;64.25
47280;BME280;34064;44.942;0.008;2023-02-01T02:40:07;100326.56;;;9.56;64.48
47280;BME280;34064;44.942;0.008;2023-02-01T02:42:47;100323.97;;;9.55;64.37
47280;BME280;34064;44.942;0.008;2023-02-01T02:48:58;100323.03;;;9.56;64.21
47280;BME280;34064;44.942;0.008;2023-02-01T02:51:38;100318.59;;;9.56;64.24
47280;BME280;34064;44.942;0.008;2023-02-01T02:54:30;100303.63;;;9.55;64.02
47280;BME280;34064;44.942;0.008;2023-02-01T03:00:19;100310.91;;;9.50;64.16
47280;BME280;34064;44.942;0.008;2023-02-01T03:03:04;100316.22;;;9.50;64.21
47280;BME280;34064;44.942;0.008;2023-02-01T03:05:50;100318.97;;;9.48;64.04
47280;BME280;34064;44.942;0.008;2023-02-01T03:08:18;100318.25;;;9.45;64.19
47280;BME280;34064;44.942;0.008;2023-02-01T03:11:00;100321.00;;;9.43;64.07
47280;BME280;34064;44.942;0.008;2023-02-01T03:13:31;100320.28;;;9.40;64.05
47280;BME280;34064;44.942;0.008;2023-02-01T03:19:02;100325.84;;;9.33;64.50
47280;BME280;34064;44.942;0.008;2023-02-01T03:24:15;100325.94;;;9.32;64.42
47280;BME280;34064;44.942;0.008;2023-02-01T03:26:55;100315.31;;;9.32;64.47
47280;BME280;34064;44.942;0.008;2023-02-01T03:29:33;100313.50;;;9.32;64.44
47280;BME280;34064;44.942;0.008;2023-02-01T03:32:03;100323.16;;;9.35;64.15
47280;BME280;34064;44.942;0.008;2023-02-01T03:34:30;100321.47;;;9.32;64.20
47280;BME280;34064;44.942;0.008;2023-02-01T03:37:02;100327.72;;;9.31;64.13
47280;BME280;34064;44.942;0.008;2023-02-01T03:39:38;100327.72;;;9.31;64.35
47280;BME280;34064;44.942;0.008;2023-02-01T03:42:24;100319.69;;;9.33;64.12
47280;BME280;34064;44.942;0.008;2023-02-01T03:45:13;100316.34;;;9.29;64.15
47280;BME280;34064;44.942;0.008;2023-02-01T03:47:47;100318.19;;;9.27;64.11
47280;BME280;34064;44.942;0.008;2023-02-01T03:50:21;100315.81;;;9.21;64.10
47280;BME280;34064;44.942;0.008;2023-02-01T03:53:08;100314.13;;;9.20;64.10
47280;BME280;34064;44.942;0.008;2023-02-01T03:55:37;100316.81;;;9.18;64.21
47280;BME280;34064;44.942;0.008;2023-02-01T03:58:12;100321.41;;;9.15;64.40
47280;BME280;34064;44.942;0.008;2023-02-01T04:00:43;100325.91;;;9.13;64.13
47280;BME280;34064;44.942;0.008;2023-02-01T04:03:10;100321.53;;;9.12;64.30
47280;BME280;34064;44.942;0.008;2023-02-01T04:05:37;100324.19;;;9.12;64.22
47280;BME280;34064;44.942;0.008;2023-02-01T04:08:04;100335.59;;;9.14;64.16
47280;BME280;34064;44.942;0.008;2023-02-01T04:10:31;100331.22;;;9.13;64.18
47280;BME280;34064;44.942;0.008;2023-02-01T04:12:57;100325.88;;;9.14;64.09
47280;BME280;34064;44.942;0.008;2023-02-01T04:15:24;100324.94;;;9.15;64.18
47280;BME280;34064;44.942;0.008;2023-02-01T04:17:51;100324.06;;;9.15;64.12
47280;BME280;34064;44.942;0.008;2023-02-01T04:20:18;100327.50;;;9.17;64.26
47280;BME280;34064;44.942;0.008;2023-02-01T04:22:44;100323.00;;;9.19;64.18
47280;BME280;34064;44.942;0.008;2023-02-01T04:25:10;100319.41;;;9.20;64.24
47280;BME280;34064;44.942;0.008;2023-02-01T04:27:37;100323.00;;;9.19;64.07
47280;BME280;34064;44.942;0.008;2023-02-01T04:30:05;100318.63;;;9.18;64.15
47280;BME280;34064;44.942;0.008;2023-02-01T04:32:36;100317.69;;;9.19;63.96
47280;BME280;34064;44.942;0.008;2023-02-01T04:35:02;100318.63;;;9.18;63.97
47280;BME280;34064;44.942;0.008;2023-02-01T04:37:29;100320.41;;;9.17;64.05
47280;BME280;34064;44.942;0.008;2023-02-01T04:39:55;100330.06;;;9.18;64.13
47280;BME280;34064;44.942;0.008;2023-02-01T04:42:22;100343.34;;;9.18;64.07
47280;BME280;34064;44.942;0.008;2023-02-01T04:44:48;100351.44;;;9.15;64.06
47280;BME280;34064;44.942;0.008;2023-02-01T04:47:15;100331.31;;;9.11;64.08
47280;BME280;34064;44.942;0.008;2023-02-01T04:49:41;100341.06;;;9.11;64.15
47280;BME280;34064;44.942;0.008;2023-02-01T04:52:08;100350.06;;;9.07;64.21
47280;BME280;34064;44.942;0.008;2023-02-01T04:54:35;100348.34;;;9.05;64.23
47280;BME280;34064;44.942;0.008;2023-02-01T04:57:01;100364.25;;;9.05;64.28
47280;BME280;34064;44.942;0.008;2023-02-01T04:59:27;100366.25;;;9.00;64.21
47280;BME280;34064;44.942;0.008;2023-02-01T05:01:54;100360.97;;;9.00;64.43
47280;BME280;34064;44.942;0.008;2023-02-01T05:04:21;100368.00;;;9.01;64.19
47280;BME280;34064;44.942;0.008;2023-02-01T05:06:47;100360.97;;;9.00;64.28
47280;BME280;34064;44.942;0.008;2023-02-01T05:09:13;100372.41;;;9.01;64.24
47280;BME280;34064;44.942;0.008;2023-02-01T05:11:40;100368.97;;;8.99;64.21
47280;BME280;34064;44.942;0.008;2023-02-01T05:14:24;100369.84;;;8.99;64.17
47280;BME280;34064;44.942;0.008;2023-02-01T05:16:51;100364.47;;;9.01;64.16
47280;BME280;34064;44.942;0.008;2023-02-01T05:19:17;100370.63;;;9.01;64.34
47280;BME280;34064;44.942;0.008;2023-02-01T05:21:43;100365.19;;;9.04;64.27
47280;BME280;34064;44.942;0.008;2023-02-01T05:24:10;100369.56;;;9.05;64.12
47280;BME280;34064;44.942;0.008;2023-02-01T05:26:39;100368.84;;;9.02;64.15
47280;BME280;34064;44.942;0.008;2023-02-01T05:29:08;100362.69;;;9.01;64.10
47280;BME280;34064;44.942;0.008;2023-02-01T05:31:36;100364.53;;;8.99;64.16
47280;BME280;34064;44.942;0.008;2023-02-01T05:34:06;100366.31;;;8.99;64.22
47280;BME280;34064;44.942;0.008;2023-02-01T05:36:34;100360.97;;;9.00;64.34
47280;BME280;34064;44.942;0.008;2023-02-01T05:39:01;100358.44;;;8.97;64.15
47280;BME280;34064;44.942;0.008;2023-02-01T05:41:28;100364.75;;;8.95;64.22
47280;BME280;34064;44.942;0.008;2023-02-01T05:43:55;100363.09;;;8.92;64.24
47280;BME280;34064;44.942;0.008;2023-02-01T05:46:22;100367.41;;;8.95;64.36
47280;BME280;34064;44.942;0.008;2023-02-01T05:48:50;100369.13;;;8.96;64.21
47280;BME280;34064;44.942;0.008;2023-02-01T05:51:17;100368.19;;;8.97;64.30
47280;BME280;34064;44.942;0.008;2023-02-01T05:53:45;100365.53;;;8.97;64.31
47280;BME280;34064;44.942;0.008;2023-02-01T05:56:12;100355.00;;;8.95;64.25
47280;BME280;34064;44.942;0.008;2023-02-01T05:58:40;100362.94;;;8.95;64.15
47280;BME280;34064;44.942;0.008;2023-02-01T06:01:07;100359.50;;;8.93;64.26
47280;BME280;34064;44.942;0.008;2023-02-01T06:03:35;100370.09;;;8.93;64.31
47280;BME280;34064;44.942;0.008;2023-02-01T06:06:02;100370.25;;;8.90;64.17
47280;BME280;34064;44.942;0.008;2023-02-01T06:08:30;100372.09;;;8.88;64.47
47280;BME280;34064;44.942;0.008;2023-02-01T06:11:06;100381.69;;;8.90;64.29
47280;BME280;34064;44.942;0.008;2023-02-01T06:13:34;100377.28;;;8.91;64.33
47280;BME280;34064;44.942;0.008;2023-02-01T06:16:02;100383.56;;;8.88;64.44
47280;BME280;34064;44.942;0.008;2023-02-01T06:18:30;100389.84;;;8.86;64.43
47280;BME280;34064;44.942;0.008;2023-02-01T06:20:59;100386.28;;;8.87;64.38
47280;BME280;34064;44.942;0.008;2023-02-01T06:23:30;100383.63;;;8.87;64.45
47280;BME280;34064;44.942;0.008;2023-02-01T06:26:06;100387.09;;;8.89;64.26
47280;BME280;34064;44.942;0.008;2023-02-01T06:28:36;100381.84;;;8.87;64.21
47280;BME280;34064;44.942;0.008;2023-02-01T06:31:06;100388.00;;;8.88;64.22
47280;BME280;34064;44.942;0.008;2023-02-01T06:33:34;100390.56;;;8.89;64.31
47280;BME280;34064;44.942;0.008;2023-02-01T06:36:04;100392.31;;;8.90;64.18
47280;BME280;34064;44.942;0.008;2023-02-01T06:38:33;100393.19;;;8.91;64.11
47280;BME280;34064;44.942;0.008;2023-02-01T06:41:02;100390.53;;;8.91;64.29
47280;BME280;34064;44.942;0.008;2023-02-01T06:43:31;100384.34;;;8.90;64.07
47280;BME280;34064;44.942;0.008;2023-02-01T06:46:09;100392.47;;;8.87;64.28
47280;BME280;34064;44.942;0.008;2023-02-01T06:48:38;100396.81;;;8.88;64.23
47280;BME280;34064;44.942;0.008;2023-02-01T06:51:05;100395.03;;;8.89;64.35
47280;BME280;34064;44.942;0.008;2023-02-01T06:53:32;100394.16;;;8.88;64.08
47280;BME280;34064;44.942;0.008;2023-02-01T06:56:00;100397.75;;;8.87;64.15
47280;BME280;34064;44.942;0.008;2023-02-01T06:58:31;100392.47;;;8.87;64.26
47280;BME280;34064;44.942;0.008;2023-02-01T07:00:58;100395.97;;;8.88;64.27
47280;BME280;34064;44.942;0.008;2023-02-01T07:03:30;100395.16;;;8.86;64.30
47280;BME280;34064;44.942;0.008;2023-02-01T07:05:57;100392.47;;;8.87;64.21
47280;BME280;34064;44.942;0.008;2023-02-01T07:08:30;100384.56;;;8.86;64.14
47280;BME280;34064;44.942;0.008;2023-02-01T07:11:06;100394.31;;;8.85;64.26
47280;BME280;34064;44.942;0.008;2023-02-01T07:13:33;100395.31;;;8.83;64.17
47280;BME280;34064;44.942;0.008;2023-02-01T07:16:02;100392.66;;;8.83;64.29
47280;BME280;34064;44.942;0.008;2023-02-01T07:18:30;100393.59;;;8.82;64.28
47280;BME280;34064;44.942;0.008;2023-02-01T07:20:57;100400.63;;;8.83;64.48
47280;BME280;34064;44.942;0.008;2023-02-01T07:23:24;100404.03;;;8.85;64.36
47280;BME280;34064;44.942;0.008;2023-02-01T07:26:00;100411.06;;;8.86;64.41
47280;BME280;34064;44.942;0.008;2023-02-01T07:28:29;100411.06;;;8.86;64.42
47280;BME280;34064;44.942;0.008;2023-02-01T07:31:06;100413.78;;;8.84;64.10
47280;BME280;34064;44.942;0.008;2023-02-01T07:33:33;100414.78;;;8.82;64.40
47280;BME280;34064;44.942;0.008;2023-02-01T07:36:02;100422.75;;;8.82;64.43
47280;BME280;34064;44.942;0.008;2023-02-01T07:38:29;100419.16;;;8.83;64.23
47280;BME280;34064;44.942;0.008;2023-02-01T07:40:59;100431.47;;;8.84;64.32
47280;BME280;34064;44.942;0.008;2023-02-01T07:43:27;100427.88;;;8.85;64.27
47280;BME280;34064;44.942;0.008;2023-02-01T07:45:54;100432.25;;;8.86;64.27
47280;BME280;34064;44.942;0.008;2023-02-01T07:48:22;100433.13;;;8.86;64.34
47280;BME280;34064;44.942;0.008;2023-02-01T07:51:01;100441.94;;;8.87;64.44
47280;BME280;34064;44.942;0.008;2023-02-01T07:53:29;100441.00;;;8.88;64.25
47280;BME280;34064;44.942;0.008;2023-02-01T07:55:56;100447.13;;;8.90;64.13
47280;BME280;34064;44.942;0.008;2023-02-01T07:58:24;100454.19;;;8.89;64.40
47280;BME280;34064;44.942;0.008;2023-02-01T08:00:51;100453.25;;;8.90;64.17
47280;BME280;34064;44.942;0.008;2023-02-01T08:03:36;100447.97;;;8.90;64.24
47280;BME280;34064;44.942;0.008;2023-02-01T08:06:02;100443.59;;;8.89;64.19
47280;BME280;34064;44.942;0.008;2023-02-01T08:08:29;100453.34;;;8.89;64.47
47280;BME280;34064;44.942;0.008;2023-02-01T08:11:03;100451.50;;;8.91;64.09
47280;BME280;34064;44.942;0.008;2023-02-01T08:13:30;100449.59;;;8.93;64.23
47280;BME280;34064;44.942;0.008;2023-02-01T08:16:02;100445.09;;;8.95;64.14
47280;BME280;34064;44.942;0.008;2023-02-01T08:18:29;100443.25;;;8.97;64.14
47280;BME280;34064;44.942;0.008;2023-02-01T08:20:55;100440.47;;;9.00;64.32
47280;BME280;34064;44.942;0.008;2023-02-01T08:23:22;100440.47;;;9.00;64.52
47280;BME280;34064;44.942;0.008;2023-02-01T08:25:49;100448.28;;;9.03;64.20
47280;BME280;34064;44.942;0.008;2023-02-01T08:28:15;100452.66;;;9.04;64.33
47280;BME280;34064;44.942;0.008;2023-02-01T08:30:42;100464.06;;;9.07;64.32
47280;BME280;34064;44.942;0.008;2023-02-01T08:33:08;100454.25;;;9.09;64.25
47280;BME280;34064;44.942;0.008;2023-02-01T08:35:35;100460.19;;;9.14;64.18
47280;BME280;34064;44.942;0.008;2023-02-01T08:38:02;100461.94;;;9.15;64.19
47280;BME280;34064;44.942;0.008;2023-02-01T08:40:29;100467.16;;;9.16;64.05
47280;BME280;34064;44.942;0.008;2023-02-01T08:42:56;100463.53;;;9.19;64.12
47280;BME280;34064;44.942;0.008;2023-02-01T08:45:25;100481.16;;;9.20;64.50
47280;BME280;34064;44.942;0.008;2023-02-01T08:47:52;100479.25;;;9.24;63.96
47280;BME280;34064;44.942;0.008;2023-02-01T08:50:19;100483.66;;;9.23;64.41
47280;BME280;34064;44.942;0.008;2023-02-01T08:52:47;100490.56;;;9.27;64.13
47280;BME280;34064;44.942;0.008;2023-02-01T08:55:13;100490.56;;;9.27;64.13
47280;BME280;34064;44.942;0.008;2023-02-01T08:57:40;100489.56;;;9.30;64.02
47280;BME280;34064;44.942;0.008;2023-02-01T09:00:09;100485.91;;;9.32;64.03
47280;BME280;34064;44.942;0.008;2023-02-01T09:02:36;100496.50;;;9.32;64.41
47280;BME280;34064;44.942;0.008;2023-02-01T09:05:04;100496.38;;;9.35;64.03
47280;BME280;34064;44.942;0.008;2023-02-01T09:07:31;100495.47;;;9.36;64.14
47280;BME280;34064;44.942;0.008;2023-02-01T09:09:58;100491.00;;;9.37;64.23
47280;BME280;34064;44.942;0.008;2023-02-01T09:12:31;100493.44;;;9.42;64.06
47280;BME280;34064;44.942;0.008;2023-02-01T09:14:59;100489.75;;;9.46;63.96
47280;BME280;34064;44.942;0.008;2023-02-01T09:17:29;100502.19;;;9.44;64.08
47280;BME280;34064;44.942;0.008;2023-02-01T09:19:55;100489.63;;;9.49;64.22
47280;BME280;34064;44.942;0.008;2023-02-01T09:22:22;100498.34;;;9.51;64.13
47280;BME280;34064;44.942;0.008;2023-02-01T09:24:48;100503.22;;;9.60;63.98
47280;BME280;34064;44.942;0.008;2023-02-01T09:27:15;100499.66;;;9.61;64.17
47280;BME280;34064;44.942;0.008;2023-02-01T09:29:41;100499.81;;;9.58;64.20
47280;BME280;34064;44.942;0.008;2023-02-01T09:32:07;100504.91;;;9.63;63.93
47280;BME280;34064;44.942;0.008;2023-02-01T09:34:34;100497.78;;;9.63;63.85
47280;BME280;34064;44.942;0.008;2023-02-01T09:37:01;100499.44;;;9.66;64.05
47280;BME280;34064;44.942;0.008;2023-02-01T09:39:28;100501.88;;;9.71;63.92
47280;BME280;34064;44.942;0.008;2023-02-01T09:47:22;100500.22;;;9.87;63.75
47280;BME280;34064;44.942;0.008;2023-02-01T09:50:02;100507.00;;;9.94;63.69
47280;BME280;34064;44.942;0.008;2023-02-01T09:52:47;100504.03;;;10.01;63.62
47280;BME280;34064;44.942;0.008;2023-02-01T09:55:18;100499.22;;;10.09;63.51
47280;BME280;34064;44.942;0.008;2023-02-01T09:58:01;100497.06;;;10.17;63.50
47280;BME280;34064;44.942;0.008;2023-02-01T10:00:36;100499.28;;;10.26;63.33
47280;BME280;34064;44.942;0.008;2023-02-01T10:03:04;100485.72;;;10.33;63.15
47280;BME280;34064;44.942;0.008;2023-02-01T10:20:52;100475.00;;;10.88;62.90
47280;BME280;34064;44.942;0.008;2023-02-01T10:26:25;100478.81;;;11.00;62.73
47280;BME280;34064;44.942;0.008;2023-02-01T10:29:00;100475.00;;;11.06;62.74
47280;BME280;34064;44.942;0.008;2023-02-01T10:31:30;100477.25;;;11.14;62.78
47280;BME280;34064;44.942;0.008;2023-02-01T10:34:00;100474.19;;;11.21;62.64
47280;BME280;34064;44.942;0.008;2023-02-01T10:36:40;100472.16;;;11.27;62.58
47280;BME280;34064;44.942;0.008;2023-02-01T10:39:11;100475.41;;;11.32;62.30
47280;BME280;34064;44.942;0.008;2023-02-01T10:41:40;100471.66;;;11.36;62.20
47280;BME280;34064;44.942;0.008;2023-02-01T10:44:11;100475.78;;;11.42;62.19
47280;BME280;34064;44.942;0.008;2023-02-01T10:46:39;100470.28;;;11.45;62.03
47280;BME280;34064;44.942;0.008;2023-02-01T10:49:19;100474.44;;;11.50;61.92
47280;BME280;34064;44.942;0.008;2023-02-01T10:52:16;100476.59;;;11.60;61.86
47280;BME280;34064;44.942;0.008;2023-02-01T10:54:45;100463.03;;;11.64;61.07
47280;BME280;34064;44.942;0.008;2023-02-01T10:57:25;100462.00;;;11.67;60.89
47280;BME280;34064;44.942;0.008;2023-02-01T10:59:54;100456.41;;;11.71;61.04
47280;BME280;34064;44.942;0.008;2023-02-01T11:02:33;100442.59;;;11.81;61.07
47280;BME280;34064;44.942;0.008;2023-02-01T11:05:09;100439.34;;;11.92;60.63
47280;BME280;34064;44.942;0.008;2023-02-01T11:07:39;100438.31;;;11.94;60.54
47280;BME280;34064;44.942;0.008;2023-02-01T11:10:36;100430.88;;;12.01;60.68
47280;BME280;34064;44.942;0.008;2023-02-01T11:13:04;100428.72;;;12.08;60.57
47280;BME280;34064;44.942;0.008;2023-02-01T11:15:31;100426.53;;;12.14;60.36
47280;BME280;34064;44.942;0.008;2023-02-01T11:18:16;100417.44;;;12.19;60.58
47280;BME280;34064;44.942;0.008;2023-02-01T11:20:43;100406.34;;;12.26;60.31
47280;BME280;34064;44.942;0.008;2023-02-01T11:23:19;100413.19;;;12.30;59.94
47280;BME280;34064;44.942;0.008;2023-02-01T11:25:58;100408.56;;;12.34;59.80
47280;BME280;34064;44.942;0.008;2023-02-01T11:28:33;100392.13;;;12.42;59.80
47280;BME280;34064;44.942;0.008;2023-02-01T11:31:04;100393.28;;;12.52;59.92
47280;BME280;34064;44.942;0.008;2023-02-01T11:33:34;100392.63;;;12.63;59.14
47280;BME280;34064;44.942;0.008;2023-02-01T11:36:13;100388.25;;;12.62;58.76
47280;BME280;34064;44.942;0.008;2023-02-01T11:38:51;100386.38;;;12.64;59.10
47280;BME280;34064;44.942;0.008;2023-02-01T11:41:27;100387.91;;;12.68;58.79
47280;BME280;34064;44.942;0.008;2023-02-01T11:43:59;100380.41;;;12.75;59.14
47280;BME280;34064;44.942;0.008;2023-02-01T11:46:31;100371.91;;;12.83;59.13
47280;BME280;34064;44.942;0.008;2023-02-01T11:49:25;100375.34;;;12.85;59.05
47280;BME280;34064;44.942;0.008;2023-02-01T11:51:59;100372.84;;;12.82;58.87
47280;BME280;34064;44.942;0.008;2023-02-01T11:54:52;100379.56;;;12.89;58.23
47280;BME280;34064;44.942;0.008;2023-02-01T12:05:58;100353.25;;;13.26;57.12
47280;BME280;34064;44.942;0.008;2023-02-01T12:08:52;100343.44;;;13.41;57.14
47280;BME280;34064;44.942;0.008;2023-02-01T12:20:32;100311.88;;;14.02;55.08
47280;BME280;34064;44.942;0.008;2023-02-01T12:28:30;100299.69;;;14.24;54.56
47280;BME280;34064;44.942;0.008;2023-02-01T12:39:40;100294.78;;;14.18;54.49
47280;BME280;34064;44.942;0.008;2023-02-01T12:47:51;100269.34;;;14.38;53.94
47280;BME280;34064;44.942;0.008;2023-02-01T12:50:27;100263.16;;;14.50;53.56
47280;BME280;34064;44.942;0.008;2023-02-01T12:52:58;100268.38;;;14.52;53.94
47280;BME280;34064;44.942;0.008;2023-02-01T12:55:38;100266.03;;;14.60;53.49
47280;BME280;34064;44.942;0.008;2023-02-01T12:58:26;100262.53;;;14.73;53.23
47280;BME280;34064;44.942;0.008;2023-02-01T13:04:03;100244.66;;;14.86;52.84
47280;BME280;34064;44.942;0.008;2023-02-01T13:06:37;100239.28;;;14.99;52.50
47280;BME280;34064;44.942;0.008;2023-02-01T13:09:19;100234.44;;;15.04;52.86
47280;BME280;34064;44.942;0.008;2023-02-01T13:11:46;100233.41;;;15.18;51.63
47280;BME280;34064;44.942;0.008;2023-02-01T13:14:38;100234.16;;;15.20;50.94
47280;BME280;34064;44.942;0.008;2023-02-01T13:17:11;100222.78;;;15.29;51.90
47280;BME280;34064;44.942;0.008;2023-02-01T13:19:48;100208.25;;;15.45;51.07
47280;BME280;34064;44.942;0.008;2023-02-01T13:22:20;100209.53;;;15.52;51.37
47280;BME280;34064;44.942;0.008;2023-02-01T13:24:59;100206.16;;;15.62;51.12
47280;BME280;34064;44.942;0.008;2023-02-01T13:27:28;100185.72;;;15.72;50.15
47280;BME280;34064;44.942;0.008;2023-02-01T13:30:02;100194.97;;;15.68;50.05
47280;BME280;34064;44.942;0.008;2023-02-01T13:38:46;100193.41;;;15.41;49.98
47280;BME280;34064;44.942;0.008;2023-02-01T13:41:29;100207.88;;;15.14;50.52
47280;BME280;34064;44.942;0.008;2023-02-01T13:44:01;100205.25;;;15.01;50.68
47280;BME280;34064;44.942;0.008;2023-02-01T13:46:29;100199.56;;;15.06;50.75
47280;BME280;34064;44.942;0.008;2023-02-01T13:49:01;100192.31;;;15.19;50.64
47280;BME280;34064;44.942;0.008;2023-02-01T13:51:48;100178.75;;;15.34;50.50
47280;BME280;34064;44.942;0.008;2023-02-01T13:54:36;100174.09;;;15.49;49.13
47280;BME280;34064;44.942;0.008;2023-02-01T13:57:10;100165.22;;;15.59;49.29
47280;BME280;34064;44.942;0.008;2023-02-01T13:59:52;100163.59;;;15.81;49.73
47280;BME280;34064;44.942;0.008;2023-02-01T14:10:54;100164.00;;;15.99;46.89
47280;BME280;34064;44.942;0.008;2023-02-01T14:21:24;100186.41;;;15.27;47.06
47280;BME280;34064;44.942;0.008;2023-02-01T14:23:56;100198.88;;;15.15;47.50
47280;BME280;34064;44.942;0.008;2023-02-01T14:26:25;100187.63;;;15.10;48.07
47280;BME280;34064;44.942;0.008;2023-02-01T14:29:13;100184.84;;;15.11;48.19
47280;BME280;34064;44.942;0.008;2023-02-01T14:37:06;100182.22;;;15.23;47.73
47280;BME280;34064;44.942;0.008;2023-02-01T14:39:46;100180.06;;;15.04;48.07
47280;BME280;34064;44.942;0.008;2023-02-01T14:42:44;100197.13;;;14.90;48.67
47280;BME280;34064;44.942;0.008;2023-02-01T14:50:46;100212.03;;;14.68;49.35
47280;BME280;34064;44.942;0.008;2023-02-01T14:53:20;100210.13;;;14.70;48.97
47280;BME280;34064;44.942;0.008;2023-02-01T14:55:51;100214.25;;;14.61;49.23
47280;BME280;34064;44.942;0.008;2023-02-01T15:06:42;100219.63;;;14.35;49.67
47280;BME280;34064;44.942;0.008;2023-02-01T15:12:18;100229.78;;;14.17;50.39
47280;BME280;34064;44.942;0.008;2023-02-01T15:15:19;100233.63;;;14.13;50.83
47280;BME280;34064;44.942;0.008;2023-02-01T15:17:58;100233.97;;;14.09;50.81
47280;BME280;34064;44.942;0.008;2023-02-01T15:20:28;100231.28;;;14.09;50.79
47280;BME280;34064;44.942;0.008;2023-02-01T15:23:05;100222.13;;;14.26;51.02
47280;BME280;34064;44.942;0.008;2023-02-01T15:25:37;100219.13;;;14.30;50.86
47280;BME280;34064;44.942;0.008;2023-02-01T15:28:05;100225.41;;;14.29;50.77
47280;BME280;34064;44.942;0.008;2023-02-01T15:30:36;100223.59;;;14.43;50.53
47280;BME280;34064;44.942;0.008;2023-02-01T15:33:16;100219.09;;;14.56;50.00